Time;durP1;ratioP1;P1;durP2;ratioP2;P2;SDS_P1;SDS_P2;PMS_P1;PMS_P2;Temp;Humidity;BMP_temperature;BMP_pressure;BME280_temperature;BME280_humidity;BME280_pressure;Samples;Min_cycle;Max_cycle;Signal;HPM_P1;HPM_P2
2023/01/24 00:00:43;;;;;;;0.00;0.00;;;;;;;8.30;70.74;103058.75;7363754;19;20011;-58
2023/01/24 00:03:12;;;;;;;0.00;0.00;;;;;;;8.16;70.30;103040.22;7358869;19;20007;-59
2023/01/24 00:05:44;;;;;;;0.00;0.00;;;;;;;8.25;70.14;103058.63;7358915;19;20010;-58
2023/01/24 00:08:14;;;;;;;0.00;0.00;;;;;;;8.23;70.05;103059.47;7363129;19;20023;-59
2023/01/24 00:10:40;;;;;;;0.00;0.00;;;;;;;8.19;70.48;103065.44;7360557;19;20503;-59
2023/01/24 00:13:06;;;;;;;0.00;0.00;;;;;;;8.14;70.79;103059.22;7363568;19;20014;-57
2023/01/24 00:15:32;;;;;;;0.00;0.00;;;;;;;8.07;70.75;103056.47;7360689;19;20093;-58
2023/01/24 00:17:57;;;;;;;0.10;0.10;;;;;;;8.11;70.48;103066.94;7365138;19;20021;-60
2023/01/24 00:20:23;;;;;;;0.00;0.00;;;;;;;8.08;70.31;103062.56;7363339;19;20018;-59
2023/01/24 00:22:48;;;;;;;0.00;0.00;;;;;;;8.06;70.62;103065.13;7364703;19;20010;-59
2023/01/24 00:25:14;;;;;;;0.00;0.00;;;;;;;8.03;70.87;103066.75;7361302;19;20006;-58
2023/01/24 00:27:39;;;;;;;0.00;0.00;;;;;;;7.99;70.74;103068.41;7364306;19;20016;-58
2023/01/24 00:30:05;;;;;;;0.00;0.00;;;;;;;7.98;71.23;103066.63;7361630;19;20006;-59
2023/01/24 00:32:32;;;;;;;0.10;0.10;;;;;;;8.00;70.78;103070.16;7363589;19;20018;-59
2023/01/24 00:34:57;;;;;;;0.00;0.00;;;;;;;8.00;70.93;103077.97;7363941;19;20013;-59
2023/01/24 00:37:23;;;;;;;0.00;0.00;;;;;;;7.99;71.02;103077.91;7364992;19;20006;-59
2023/01/24 00:39:49;;;;;;;0.00;0.00;;;;;;;7.99;71.88;103078.81;7362146;19;20010;-59
2023/01/24 00:42:14;;;;;;;0.00;0.00;;;;;;;8.00;71.54;103082.28;7362337;19;23052;-59
2023/01/24 00:44:40;;;;;;;0.00;0.00;;;;;;;8.01;71.51;103082.34;7363590;19;20453;-59
2023/01/24 00:47:05;;;;;;;0.00;0.00;;;;;;;8.01;71.56;103077.13;7363799;19;20018;-59
2023/01/24 00:49:30;;;;;;;0.05;0.05;;;;;;;8.02;72.02;103073.69;7362329;19;20010;-59
2023/01/24 00:51:56;;;;;;;0.00;0.00;;;;;;;7.91;71.84;103056.94;7366269;19;20048;-59
2023/01/24 00:54:21;;;;;;;0.10;0.10;;;;;;;8.06;71.97;103080.75;7360556;19;20018;-59
2023/01/24 00:56:47;;;;;;;0.10;0.10;;;;;;;8.07;72.18;103077.28;7360459;19;20006;-59
2023/01/24 00:59:12;;;;;;;0.03;0.03;;;;;;;8.10;72.47;103075.59;7361657;19;20031;-59
2023/01/24 01:01:38;;;;;;;0.00;0.00;;;;;;;8.12;72.10;103076.53;7359590;19;20042;-59
2023/01/24 01:04:03;;;;;;;0.00;0.00;;;;;;;8.13;72.28;103078.28;7360887;19;20471;-59
2023/01/24 01:06:29;;;;;;;0.00;0.00;;;;;;;8.14;72.32;103073.13;7361992;19;20011;-59
2023/01/24 01:08:54;;;;;;;0.03;0.03;;;;;;;8.16;72.67;103070.53;7361781;19;20166;-59
2023/01/24 01:11:20;;;;;;;0.00;0.00;;;;;;;8.18;72.27;103068.88;7357156;19;20018;-59
2023/01/24 01:13:48;;;;;;;0.00;0.00;;;;;;;8.06;72.57;103049.50;7356446;19;20010;-59
2023/01/24 01:16:17;;;;;;;0.00;0.00;;;;;;;8.21;72.83;103064.63;7362298;19;20014;-58
2023/01/24 01:18:43;;;;;;;0.00;0.00;;;;;;;8.22;72.82;103065.50;7361741;19;20098;-58
2023/01/24 01:21:14;;;;;;;0.00;0.00;;;;;;;8.13;72.55;103039.25;7363050;19;22416;-59
2023/01/24 01:23:40;;;;;;;0.00;0.00;;;;;;;8.25;72.63;103060.38;7360623;19;20006;-58
2023/01/24 01:26:08;;;;;;;0.00;0.00;;;;;;;8.26;72.86;103056.91;7363127;19;20010;-59
2023/01/24 01:28:34;;;;;;;0.08;0.08;;;;;;;8.22;72.52;103049.91;7365254;19;20711;-58
2023/01/24 01:31:01;;;;;;;0.00;0.00;;;;;;;8.26;72.63;103055.22;7360705;19;20023;-60
2023/01/24 01:33:27;;;;;;;0.10;0.10;;;;;;;8.26;72.90;103062.13;7364184;19;20566;-58
2023/01/24 01:35:52;;;;;;;0.00;0.00;;;;;;;8.26;72.42;103062.13;7362404;19;20026;-59
2023/01/24 01:38:19;;;;;;;0.00;0.00;;;;;;;8.25;72.85;103058.63;7362872;19;20074;-59
2023/01/24 01:40:44;;;;;;;0.00;0.00;;;;;;;8.24;72.96;103053.41;7361110;19;20022;-59
2023/01/24 01:43:16;;;;;;;0.00;0.00;;;;;;;8.23;72.67;103052.53;7362256;19;20017;-59
2023/01/24 01:45:47;;;;;;;0.00;0.00;;;;;;;8.25;72.80;103056.03;7361243;19;20106;-58
2023/01/24 01:48:21;;;;;;;0.00;0.00;;;;;;;8.23;72.54;103049.94;7362890;19;20727;-59
2023/01/24 01:50:56;;;;;;;0.00;0.00;;;;;;;8.21;72.81;103049.03;7359223;19;20082;-58
2023/01/24 01:53:25;;;;;;;0.00;0.00;;;;;;;8.19;72.71;103044.59;7360393;19;20031;-59
2023/01/24 01:56:00;;;;;;;0.00;0.00;;;;;;;8.20;72.43;103051.56;7368470;19;20018;-58
2023/01/24 01:58:25;;;;;;;0.00;0.00;;;;;;;8.17;72.44;103057.59;7361768;19;20014;-59
2023/01/24 02:00:51;;;;;;;0.00;0.00;;;;;;;8.16;72.65;103057.53;7361198;19;20466;-60
2023/01/24 02:03:37;;;;;;;0.00;0.00;;;;;;;8.17;72.47;103067.13;7362255;19;20039;-59
2023/01/24 02:06:04;;;;;;;0.00;0.00;;;;;;;8.10;72.55;103059.97;7359952;19;20034;-59
2023/01/24 02:08:29;;;;;;;0.00;0.00;;;;;;;8.13;72.59;103070.47;7359603;19;20049;-57
2023/01/24 02:13:43;;;;;;;;;;;;;;;8.13;72.08;103076.56;7361366;19;20017;-59
2023/01/24 02:16:13;;;;;;;0.00;0.00;;;;;;;8.10;72.50;103075.59;7332406;19;20278;-60
2023/01/24 02:18:41;;;;;;;0.00;0.00;;;;;;;8.10;72.18;103078.19;7345862;19;20013;-60
2023/01/24 02:21:09;;;;;;;0.00;0.00;;;;;;;8.07;72.61;103082.50;7351515;19;20371;-59
2023/01/24 02:23:47;;;;;;;0.00;0.00;;;;;;;8.08;72.40;103083.38;7360550;19;20023;-59
2023/01/24 02:26:14;;;;;;;;;;;;;;;8.06;71.94;103074.66;7361188;19;20018;-59
2023/01/24 02:28:50;;;;;;;0.00;0.00;;;;;;;8.03;72.56;103080.66;7360263;19;20351;-59
2023/01/24 02:31:15;;;;;;;0.00;0.00;;;;;;;8.00;72.54;103079.69;7359628;19;21004;-59
2023/01/24 02:33:41;;;;;;;0.00;0.00;;;;;;;7.97;72.74;103083.09;7362038;19;20204;-59
2023/01/24 02:36:24;;;;;;;0.05;0.05;;;;;;;7.96;72.37;103078.75;7362666;19;20031;-59
2023/01/24 02:39:06;;;;;;;0.00;0.00;;;;;;;7.93;72.74;103083.84;7361681;19;20014;-59
2023/01/24 02:41:41;;;;;;;0.00;0.00;;;;;;;7.82;72.54;103069.69;7360050;19;20022;-59
2023/01/24 02:44:12;;;;;;;0.00;0.00;;;;;;;7.88;72.89;103085.44;7359690;19;20638;-59
2023/01/24 02:46:42;;;;;;;0.00;0.00;;;;;;;7.83;72.66;103097.44;7364592;19;20011;-59
2023/01/24 02:49:08;;;;;;;0.00;0.00;;;;;;;7.75;72.75;103093.75;7357134;19;20021;-59
2023/01/24 02:54:17;;;;;;;0.00;0.00;;;;;;;7.75;72.42;103106.75;7359124;19;20860;-58
2023/01/24 02:59:27;;;;;;;0.00;0.00;;;;;;;7.68;72.75;103105.72;7345904;19;20577;-59
2023/01/24 03:01:52;;;;;;;0.00;0.00;;;;;;;7.66;72.31;103109.13;7356966;19;20010;-59
2023/01/24 03:04:18;;;;;;;0.00;0.00;;;;;;;7.62;72.40;103112.47;7359207;19;20021;-59
2023/01/24 03:06:43;;;;;;;0.00;0.00;;;;;;;7.61;72.49;103115.91;7359089;19;20074;-59
2023/01/24 03:09:18;;;;;;;0.10;0.10;;;;;;;7.57;72.44;103108.88;7356618;19;20007;-60
2023/01/24 03:11:48;;;;;;;0.00;0.00;;;;;;;7.54;72.21;103109.63;7358963;19;20015;-59
2023/01/24 03:36:19;;;;;;;0.00;0.00;;;;;;;7.40;72.93;103119.66;7353147;19;20733;-58
2023/01/24 03:41:30;;;;;;;0.00;0.00;;;;;;;7.39;73.33;103117.88;7362939;19;20017;-59
2023/01/24 03:43:55;;;;;;;0.00;0.00;;;;;;;7.42;73.06;103115.38;7364679;19;22678;-59
2023/01/24 03:46:21;;;;;;;0.00;0.00;;;;;;;7.43;73.51;103111.06;7362397;19;20342;-59
2023/01/24 03:48:46;;;;;;;0.00;0.00;;;;;;;7.44;73.20;103118.88;7366935;19;20518;-59
2023/01/24 03:53:56;;;;;;;0.00;0.00;;;;;;;7.47;73.49;103111.19;7364869;19;20487;-59
2023/01/24 03:56:21;;;;;;;0.10;0.10;;;;;;;7.47;73.37;103113.78;7362619;19;22433;-59
2023/01/24 03:58:47;;;;;;;0.00;0.00;;;;;;;7.48;73.33;103115.56;7363723;19;20470;-58
2023/01/24 04:01:12;;;;;;;0.00;0.00;;;;;;;7.49;73.42;103109.50;7360945;19;20114;-59
2023/01/24 04:03:38;;;;;;;0.00;0.00;;;;;;;7.50;73.55;103123.38;7361268;19;20013;-59
2023/01/24 04:06:03;;;;;;;0.00;0.00;;;;;;;7.51;73.39;103125.16;7341644;19;20051;-59
2023/01/24 04:08:29;;;;;;;0.10;0.10;;;;;;;7.53;73.30;103124.38;7363820;19;20033;-58
2023/01/24 04:10:56;;;;;;;0.00;0.00;;;;;;;7.53;73.63;103129.56;7361943;19;20027;-59
2023/01/24 04:13:21;;;;;;;0.00;0.00;;;;;;;7.52;73.23;103126.94;7363960;19;20038;-58
2023/01/24 04:15:47;;;;;;;0.00;0.00;;;;;;;7.52;73.27;103135.59;7364384;19;20042;-59
2023/01/24 04:18:12;;;;;;;0.00;0.00;;;;;;;7.52;73.28;103137.34;7362591;19;20018;-59
2023/01/24 04:20:38;;;;;;;0.00;0.00;;;;;;;7.52;73.43;103132.13;7344278;19;20010;-59
2023/01/24 04:23:05;;;;;;;0.00;0.00;;;;;;;7.52;73.20;103138.22;7364085;19;20026;-59
2023/01/24 04:25:30;;;;;;;0.00;0.00;;;;;;;7.53;73.23;103145.16;7365811;19;20030;-59
2023/01/24 04:27:56;;;;;;;0.00;0.00;;;;;;;7.53;73.58;103144.28;7361277;19;21382;-59
2023/01/24 04:30:21;;;;;;;0.00;0.00;;;;;;;7.47;73.49;103138.91;7362984;19;20006;-60
2023/01/24 04:32:47;;;;;;;0.00;0.00;;;;;;;7.53;73.57;103145.16;7365301;19;20030;-58
2023/01/24 04:35:24;;;;;;;0.00;0.00;;;;;;;7.56;73.85;103151.31;7361406;19;20678;-58
2023/01/24 04:37:50;;;;;;;0.00;0.00;;;;;;;7.52;73.50;103140.81;7364233;19;20408;-59
2023/01/24 04:40:15;;;;;;;0.00;0.00;;;;;;;7.47;73.62;103134.59;7364672;19;20030;-59
2023/01/24 04:42:42;;;;;;;0.00;0.00;;;;;;;7.53;73.49;103149.47;7365666;19;20010;-58
2023/01/24 04:45:08;;;;;;;0.00;0.00;;;;;;;7.32;73.54;103113.34;7361066;19;20026;-58
2023/01/24 04:47:34;;;;;;;0.00;0.00;;;;;;;7.51;73.50;103144.25;7364162;19;20507;-60
2023/01/24 04:49:59;;;;;;;0.10;0.10;;;;;;;7.51;73.92;103146.84;7359683;19;20070;-59
2023/01/24 04:52:24;;;;;;;0.10;0.10;;;;;;;7.51;73.42;103149.44;7364826;19;20018;-59
2023/01/24 04:54:51;;;;;;;0.00;0.00;;;;;;;7.51;73.76;103156.38;7362357;19;20021;-59
2023/01/24 04:57:17;;;;;;;0.00;0.00;;;;;;;7.52;73.67;103153.81;7363404;19;20006;-59
2023/01/24 04:59:42;;;;;;;0.00;0.00;;;;;;;7.52;73.62;103148.59;7360860;19;21342;-58
2023/01/24 05:02:08;;;;;;;0.00;0.00;;;;;;;7.51;73.76;103152.06;7364143;19;20003;-58
2023/01/24 05:04:33;;;;;;;0.00;0.00;;;;;;;7.52;73.89;103159.00;7365304;19;20002;-59
2023/01/24 05:06:59;;;;;;;0.00;0.00;;;;;;;7.52;73.94;103159.00;7362941;19;20037;-59
2023/01/24 05:09:24;;;;;;;0.10;0.10;;;;;;;7.44;73.97;103136.22;7363714;19;20002;-59
2023/01/24 05:11:50;;;;;;;0.00;0.00;;;;;;;7.52;73.96;103151.22;7361530;19;20006;-59
2023/01/24 05:14:15;;;;;;;0.00;0.00;;;;;;;7.51;73.96;103146.84;7363359;19;20006;-58
2023/01/24 05:16:40;;;;;;;0.00;0.00;;;;;;;7.49;73.58;103142.44;7360886;19;20026;-59
2023/01/24 05:19:06;;;;;;;0.00;0.00;;;;;;;7.51;73.87;103140.78;7365401;19;20502;-58
2023/01/24 05:21:31;;;;;;;0.00;0.00;;;;;;;7.51;73.78;103145.97;7359148;19;20042;-59
2023/01/24 05:23:57;;;;;;;0.00;0.00;;;;;;;7.51;73.88;103130.38;7363162;19;20017;-58
2023/01/24 05:26:25;;;;;;;0.00;0.00;;;;;;;7.54;74.15;103130.44;7361207;19;20025;-59
2023/01/24 05:28:51;;;;;;;0.00;0.00;;;;;;;7.55;73.70;103129.59;7364834;19;20443;-59
2023/01/24 05:31:17;;;;;;;0.00;0.00;;;;;;;7.48;74.44;103114.69;7362300;19;20031;-58
2023/01/24 05:33:42;;;;;;;0.10;0.10;;;;;;;7.58;74.39;103126.22;7359018;19;21403;-58
2023/01/24 05:36:11;;;;;;;0.00;0.00;;;;;;;7.50;73.97;103098.28;7361442;19;20038;-58
2023/01/24 05:38:37;;;;;;;0.03;0.03;;;;;;;7.65;74.37;103121.22;7365171;19;20013;-59
2023/01/24 05:41:05;;;;;;;0.00;0.00;;;;;;;7.68;74.05;103123.91;7361457;19;20694;-59
2023/01/24 05:43:30;;;;;;;0.00;0.00;;;;;;;7.70;74.05;103116.16;7363658;19;20011;-59
2023/01/24 05:45:59;;;;;;;0.00;0.00;;;;;;;7.72;74.09;103114.50;7364648;19;21400;-59
2023/01/24 05:48:24;;;;;;;0.10;0.10;;;;;;;7.64;74.40;103101.25;7364720;19;20007;-58
2023/01/24 05:50:50;;;;;;;0.00;0.00;;;;;;;7.74;74.05;103121.47;7359216;19;22342;-59
2023/01/24 05:53:15;;;;;;;0.00;0.00;;;;;;;7.76;74.03;103116.34;7362061;19;20015;-59
2023/01/24 05:55:40;;;;;;;0.00;0.00;;;;;;;7.67;74.16;103110.88;7358854;19;20061;-58
2023/01/24 05:58:06;;;;;;;0.00;0.00;;;;;;;7.78;74.18;103119.84;7361208;19;20010;-59
2023/01/24 06:00:31;;;;;;;0.00;0.00;;;;;;;7.79;74.37;103116.41;7357963;19;20007;-59
2023/01/24 06:03:02;;;;;;;0.00;0.00;;;;;;;7.82;73.98;103126.91;7361528;19;20765;-58
2023/01/24 06:05:27;;;;;;;0.08;0.08;;;;;;;7.81;74.45;103127.75;7358443;19;20018;-59
2023/01/24 06:07:53;;;;;;;0.00;0.00;;;;;;;7.80;74.45;103120.75;7358087;19;20014;-59
2023/01/24 06:10:18;;;;;;;0.00;0.00;;;;;;;7.74;74.14;103118.00;7358973;19;21207;-58
2023/01/24 06:12:44;;;;;;;0.00;0.00;;;;;;;7.83;74.22;103128.66;7362847;19;20018;-58
2023/01/24 06:15:09;;;;;;;0.00;0.00;;;;;;;7.81;74.50;103138.16;7355753;19;20018;-59
2023/01/24 06:17:35;;;;;;;0.10;0.10;;;;;;;7.80;74.50;103138.97;7363366;19;20014;-58
2023/01/24 06:20:01;;;;;;;0.00;0.00;;;;;;;7.79;74.12;103142.41;7362789;19;20025;-59
2023/01/24 06:22:39;;;;;;;0.00;0.00;;;;;;;7.79;74.31;103142.41;7360629;19;20619;-58
2023/01/24 06:25:12;;;;;;;0.10;0.10;;;;;;;7.77;74.28;103136.31;7361563;19;20014;-59
2023/01/24 06:27:38;;;;;;;0.03;0.03;;;;;;;7.77;74.03;103136.31;7359184;19;20010;-59
2023/01/24 06:30:04;;;;;;;0.00;0.00;;;;;;;7.78;74.35;103141.53;7361917;19;20037;-59
2023/01/24 06:32:48;;;;;;;0.00;0.00;;;;;;;7.83;74.26;103146.00;7355745;19;20014;-59
2023/01/24 06:35:13;;;;;;;0.10;0.10;;;;;;;7.80;74.54;103144.19;7362635;19;20086;-58
2023/01/24 06:37:51;;;;;;;0.00;0.00;;;;;;;7.85;74.03;103145.19;7361221;19;21347;-59
2023/01/24 06:40:19;;;;;;;0.00;0.00;;;;;;;7.85;74.11;103147.78;7362289;19;20052;-58
2023/01/24 06:42:45;;;;;;;0.00;0.00;;;;;;;7.83;74.06;103144.28;7357041;19;20116;-59
2023/01/24 06:45:11;;;;;;;0.05;0.05;;;;;;;7.74;74.51;103128.41;7360937;19;20692;-59
2023/01/24 06:47:36;;;;;;;0.00;0.00;;;;;;;7.84;74.39;103146.03;7359625;19;20025;-59
2023/01/24 06:50:04;;;;;;;0.00;0.00;;;;;;;7.85;74.57;103150.38;7362886;19;20017;-58
2023/01/24 06:52:30;;;;;;;;;;;;;;;7.90;73.80;103156.59;7362285;19;20704;-59
2023/01/24 06:54:55;;;;;;;0.00;0.00;;;;;;;7.76;73.99;103142.34;7363478;19;22063;-58
2023/01/24 06:57:20;;;;;;;0.00;0.00;;;;;;;7.86;74.53;103154.78;7355712;19;20006;-59
2023/01/24 06:59:46;;;;;;;0.08;0.08;;;;;;;7.87;74.41;103164.34;7346722;19;20014;-59
2023/01/24 07:02:11;;;;;;;0.10;0.10;;;;;;;7.83;74.64;103159.88;7358306;19;20002;-59
2023/01/24 07:04:37;;;;;;;0.00;0.00;;;;;;;7.83;74.78;103159.88;7355527;19;20347;-58
2023/01/24 07:07:05;;;;;;;0.00;0.00;;;;;;;7.83;74.35;103149.47;7358062;19;20018;-59
2023/01/24 07:09:31;;;;;;;0.00;0.00;;;;;;;7.87;74.79;103158.25;7345565;19;20473;-59
2023/01/24 07:11:58;;;;;;;0.00;0.00;;;;;;;7.87;74.43;103151.34;7362412;19;20010;-58
2023/01/24 07:14:23;;;;;;;0.00;0.00;;;;;;;7.83;74.46;103144.28;7364500;19;20014;-59
2023/01/24 07:16:50;;;;;;;0.00;0.00;;;;;;;7.84;74.32;103135.63;7366624;19;20021;-58
2023/01/24 07:19:25;;;;;;;0.10;0.10;;;;;;;7.96;74.68;103156.78;7362756;19;20458;-59
2023/01/24 07:21:53;;;;;;;0.00;0.00;;;;;;;7.93;74.55;103146.28;7364462;19;20747;-58
2023/01/24 07:24:21;;;;;;;0.00;0.00;;;;;;;8.02;74.79;103154.34;7366879;19;20003;-59
2023/01/24 07:26:48;;;;;;;0.00;0.00;;;;;;;8.04;74.67;103155.25;7361806;19;21123;-59
2023/01/24 07:29:13;;;;;;;0.00;0.00;;;;;;;7.94;74.67;103132.44;7365174;19;20015;-58
2023/01/24 07:31:39;;;;;;;0.08;0.08;;;;;;;8.00;74.51;103135.19;7364391;19;20449;-59
2023/01/24 07:34:04;;;;;;;0.00;0.00;;;;;;;8.11;74.33;103155.41;7365524;19;20045;-58
2023/01/24 07:36:30;;;;;;;0.00;0.00;;;;;;;8.22;74.38;103161.81;7364535;19;20002;-58
2023/01/24 07:38:56;;;;;;;0.00;0.00;;;;;;;8.25;74.57;103154.94;7363699;19;20002;-58
2023/01/24 07:41:22;;;;;;;0.05;0.05;;;;;;;8.30;74.80;103162.88;7362611;19;20026;-59
2023/01/24 07:43:47;;;;;;;0.00;0.00;;;;;;;8.33;74.72;103158.66;7362538;19;20026;-59
2023/01/24 07:46:13;;;;;;;0.00;0.00;;;;;;;8.38;74.62;103161.41;7365312;19;19999;-58
2023/01/24 07:48:39;;;;;;;0.08;0.08;;;;;;;8.43;74.80;103159.81;7362492;19;20032;-59
2023/01/24 07:51:05;;;;;;;0.10;0.10;;;;;;;8.42;74.73;103141.53;7363620;19;20069;-58
2023/01/24 07:53:31;;;;;;;0.08;0.08;;;;;;;8.52;74.98;103154.84;7359378;19;20014;-58
2023/01/24 07:56:00;;;;;;;0.10;0.10;;;;;;;8.57;74.79;103158.44;7350498;19;22135;-59
2023/01/24 07:58:25;;;;;;;0.00;0.00;;;;;;;8.60;74.63;103161.94;7362155;19;20028;-58
2023/01/24 08:00:51;;;;;;;0.00;0.00;;;;;;;8.60;74.46;103148.91;7357795;19;20093;-59
2023/01/24 08:03:17;;;;;;;0.00;0.00;;;;;;;8.68;74.34;103158.69;7362161;19;20018;-59
2023/01/24 08:05:42;;;;;;;0.10;0.10;;;;;;;8.69;74.32;103156.97;7362573;19;20070;-59
2023/01/24 08:08:08;;;;;;;0.03;0.03;;;;;;;8.75;74.06;103168.41;7359482;19;20086;-59
2023/01/24 08:10:33;;;;;;;0.00;0.00;;;;;;;8.78;74.47;103173.69;7360937;19;20957;-59
2023/01/24 08:12:59;;;;;;;0.10;0.10;;;;;;;8.82;74.23;103174.66;7361857;19;20002;-59
2023/01/24 08:15:24;;;;;;;0.00;0.00;;;;;;;8.82;74.39;103169.47;7363962;19;20060;-59
2023/01/24 08:17:50;;;;;;;0.00;0.00;;;;;;;8.82;74.32;103169.47;7359772;19;20849;-58
2023/01/24 08:20:15;;;;;;;0.00;0.00;;;;;;;8.89;74.45;103176.56;7364501;19;20024;-59
2023/01/24 08:22:41;;;;;;;0.00;0.00;;;;;;;8.81;74.41;103157.25;7356718;19;20007;-59
2023/01/24 08:25:10;;;;;;;0.08;0.08;;;;;;;8.81;74.58;103157.25;7359621;19;20407;-59
2023/01/24 08:27:39;;;;;;;0.00;0.00;;;;;;;8.95;74.28;103176.69;7365877;19;20035;-58
2023/01/24 08:30:06;;;;;;;0.08;0.08;;;;;;;8.95;74.41;103178.44;7364322;19;20074;-58
2023/01/24 08:32:31;;;;;;;0.00;0.00;;;;;;;8.97;74.81;103180.25;7362084;19;20033;-58
2023/01/24 08:34:57;;;;;;;0.00;0.00;;;;;;;9.00;74.57;103179.41;7364456;19;20007;-59
2023/01/24 08:37:23;;;;;;;0.00;0.00;;;;;;;9.02;74.42;103182.94;7360933;19;20027;-59
2023/01/24 08:39:49;;;;;;;0.05;0.05;;;;;;;9.04;74.62;103176.06;7360532;19;20022;-59
2023/01/24 08:42:14;;;;;;;0.00;0.00;;;;;;;9.04;74.33;103176.94;7363250;19;22507;-59
2023/01/24 08:44:39;;;;;;;0.00;0.00;;;;;;;9.03;74.63;103167.34;7358871;19;20018;-60
2023/01/24 08:47:05;;;;;;;0.10;0.10;;;;;;;9.12;74.44;103179.69;7363231;19;20026;-58
2023/01/24 08:49:30;;;;;;;0.00;0.00;;;;;;;9.15;74.44;103181.50;7357751;19;20002;-59
2023/01/24 08:51:58;;;;;;;0.00;0.00;;;;;;;9.07;74.40;103166.59;7363930;19;20367;-59
2023/01/24 08:54:28;;;;;;;0.10;0.10;;;;;;;9.24;74.21;103180.00;7360569;19;20007;-59
2023/01/24 08:56:54;;;;;;;0.00;0.00;;;;;;;9.18;74.54;103168.56;7365051;19;20018;-59
2023/01/24 08:59:19;;;;;;;0.00;0.00;;;;;;;9.28;74.29;103176.63;7358433;19;20070;-58
2023/01/24 09:01:45;;;;;;;0.00;0.00;;;;;;;9.33;74.23;103174.09;7360888;19;20082;-59
2023/01/24 09:04:11;;;;;;;0.00;0.00;;;;;;;9.36;74.30;103174.16;7360183;19;20036;-60
2023/01/24 09:06:37;;;;;;;0.10;0.10;;;;;;;9.40;74.48;103178.59;7360515;19;20006;-58
2023/01/24 09:09:03;;;;;;;0.05;0.05;;;;;;;9.44;74.61;103177.81;7361646;19;20030;-59
2023/01/24 09:11:30;;;;;;;0.00;0.00;;;;;;;9.50;74.27;103182.28;7357276;19;20589;-59
2023/01/24 09:13:56;;;;;;;0.00;0.00;;;;;;;9.57;74.79;103178.94;7361253;19;20010;-59
2023/01/24 09:16:21;;;;;;;0.00;0.00;;;;;;;9.53;74.67;103162.38;7354370;19;20636;-59
2023/01/24 09:18:49;;;;;;;0.00;0.00;;;;;;;9.68;74.71;103187.00;7363305;19;20020;-58
2023/01/24 09:21:15;;;;;;;0.00;0.00;;;;;;;9.75;74.18;103184.56;7360034;19;20018;-59
2023/01/24 09:23:40;;;;;;;0.00;0.00;;;;;;;9.76;74.54;103181.09;7360707;19;22360;-59
2023/01/24 09:26:06;;;;;;;0.00;0.00;;;;;;;9.81;74.63;103173.38;7359472;19;20462;-59
2023/01/24 09:28:33;;;;;;;0.00;0.00;;;;;;;9.97;74.56;103185.00;7361958;19;21520;-60
2023/01/24 09:30:59;;;;;;;0.00;0.00;;;;;;;10.04;74.64;103181.66;7363210;19;20025;-58
2023/01/24 09:33:25;;;;;;;0.00;0.00;;;;;;;10.11;74.46;103189.63;7359875;19;21499;-59
2023/01/24 09:35:58;;;;;;;0.05;0.05;;;;;;;10.20;74.46;103188.06;7355957;19;20540;-58
2023/01/24 09:38:27;;;;;;;0.00;0.00;;;;;;;10.30;74.61;103182.19;7359611;19;20023;-59
2023/01/24 09:41:07;;;;;;;0.00;0.00;;;;;;;10.47;74.20;103185.09;7357208;19;20048;-60
2023/01/24 09:43:42;;;;;;;0.00;0.00;;;;;;;10.61;74.39;103186.22;7361066;19;20010;-60
2023/01/24 09:46:26;;;;;;;0.00;0.00;;;;;;;10.79;74.40;103180.38;7358129;19;20022;-59
2023/01/24 09:49:05;;;;;;;0.00;0.00;;;;;;;11.06;75.04;103188.69;7359248;19;20010;-59
2023/01/24 09:51:36;;;;;;;0.00;0.00;;;;;;;11.31;74.62;103191.66;7359388;19;20563;-60
2023/01/24 09:54:05;;;;;;;0.10;0.10;;;;;;;11.54;74.14;103187.59;7358742;19;20010;-59
2023/01/24 09:56:34;;;;;;;0.10;0.10;;;;;;;11.77;74.24;103171.31;7361161;19;20018;-60
2023/01/24 09:59:25;;;;;;;0.10;0.10;;;;;;;12.10;74.07;103184.81;7359855;19;20853;-61
2023/01/24 10:01:52;;;;;;;0.00;0.00;;;;;;;12.25;73.38;103185.84;7357162;19;20023;-59
2023/01/24 10:04:21;;;;;;;0.00;0.00;;;;;;;12.51;73.01;103194.81;7360331;19;20006;-59
2023/01/24 10:06:56;;;;;;;0.10;0.10;;;;;;;12.76;73.52;103195.03;7343305;19;20713;-58
2023/01/24 10:09:37;;;;;;;0.00;0.00;;;;;;;13.04;73.10;103180.41;7356491;19;20014;-59
2023/01/24 10:12:28;;;;;;;0.03;0.03;;;;;;;13.30;73.37;103188.47;7356983;19;20105;-59
2023/01/24 10:15:47;;;;;;;0.10;0.10;;;;;;;13.57;73.02;103182.47;7257653;19;2004522;-59
2023/01/24 10:18:18;;;;;;;0.10;0.10;;;;;;;13.74;72.29;103192.19;7149039;19;2004480;-60
2023/01/24 10:21:13;;;;;;;0.00;0.00;;;;;;;13.90;71.58;103187.88;7357527;19;20020;-59
2023/01/24 10:23:43;;;;;;;0.10;0.10;;;;;;;14.07;71.44;103190.53;7257305;19;2004260;-59
2023/01/24 10:26:47;;;;;;;0.10;0.10;;;;;;;14.30;71.49;103192.34;7356056;19;20423;-59
2023/01/24 10:29:15;;;;;;;0.00;0.00;;;;;;;14.37;70.63;103194.09;7255780;19;2004118;-59
2023/01/24 10:31:50;;;;;;;0.10;0.10;;;;;;;14.46;70.74;103173.06;7358232;19;20031;-60
2023/01/24 10:34:28;;;;;;;0.10;0.10;;;;;;;14.76;70.17;103196.78;7356582;19;20019;-58
2023/01/24 10:37:01;;;;;;;0.00;0.00;;;;;;;14.89;70.06;103195.00;7357164;19;20010;-60
2023/01/24 10:39:27;;;;;;;0.10;0.10;;;;;;;15.05;70.23;103190.59;7358229;19;20010;-59
2023/01/24 10:41:53;;;;;;;0.10;0.10;;;;;;;15.16;69.53;103188.84;7363209;19;22745;-59
2023/01/24 10:44:25;;;;;;;0.00;0.00;;;;;;;15.43;69.96;103187.03;7360247;19;20010;-59
2023/01/24 10:47:14;;;;;;;0.10;0.10;;;;;;;15.61;69.91;103193.97;7356703;19;20027;-59
2023/01/24 10:49:44;;;;;;;0.00;0.00;;;;;;;15.61;67.92;103197.47;7347247;19;20035;-60
2023/01/24 10:52:17;;;;;;;0.10;0.10;;;;;;;15.78;67.90;103200.97;7348172;19;20038;-59
2023/01/24 10:54:57;;;;;;;0.00;0.00;;;;;;;16.01;69.00;103200.81;7350478;19;20033;-60
2023/01/24 10:58:04;;;;;;;0.00;0.00;;;;;;;16.18;68.36;103210.44;7345393;19;20014;-59
2023/01/24 11:00:40;;;;;;;0.10;0.10;;;;;;;16.34;66.89;103201.53;7244444;19;2004430;-59
2023/01/24 11:03:21;;;;;;;0.10;0.10;;;;;;;16.58;67.78;103211.03;7345165;19;20369;-59
2023/01/24 11:05:52;;;;;;;0.10;0.10;;;;;;;16.64;66.74;103200.41;7358929;19;20010;-58
2023/01/24 11:08:21;;;;;;;0.10;0.10;;;;;;;16.66;65.15;103198.63;7362279;19;20014;-59
2023/01/24 11:10:51;;;;;;;0.10;0.10;;;;;;;16.70;64.95;103199.50;7358638;19;20007;-59
2023/01/24 11:13:38;;;;;;;0.10;0.10;;;;;;;16.66;64.87;103197.75;7358064;19;20020;-59
2023/01/24 11:16:19;;;;;;;;;;;;;;;16.64;66.35;103192.50;7360300;19;20015;-59
2023/01/24 11:18:59;;;;;;;0.10;0.10;;;;;;;16.48;65.31;103188.25;7359064;19;19922;-59
2023/01/24 11:21:28;;;;;;;0.10;0.10;;;;;;;16.27;64.08;103179.59;7357708;19;20082;-59
2023/01/24 11:24:05;;;;;;;0.00;0.00;;;;;;;16.15;65.07;103182.31;7360884;19;20015;-58
2023/01/24 11:26:35;;;;;;;0.10;0.10;;;;;;;15.95;63.55;103182.41;7360468;19;20018;-59
2023/01/24 11:29:05;;;;;;;0.10;0.10;;;;;;;15.80;63.72;103174.59;7358017;19;20999;-59
2023/01/24 11:32:02;;;;;;;0.10;0.10;;;;;;;15.68;65.02;103172.91;7358100;19;20066;-59
2023/01/24 11:34:36;;;;;;;0.00;0.00;;;;;;;15.48;64.15;103165.06;7258485;19;2004322;-59
2023/01/24 11:37:17;;;;;;;0.00;0.00;;;;;;;15.37;64.81;103163.34;7355648;19;20046;-59
2023/01/24 11:40:14;;;;;;;0.10;0.10;;;;;;;15.25;65.04;103157.22;7357958;19;20011;-59
2023/01/24 11:42:54;;;;;;;;;;;;;;;15.15;65.55;103160.75;7257825;19;2004448;-59
2023/01/24 11:45:46;;;;;;;0.00;0.00;;;;;;;15.00;64.94;103160.78;7355455;19;20282;-58
2023/01/24 11:48:45;;;;;;;0.08;0.08;;;;;;;14.86;65.00;103147.69;7258058;19;2004469;-58
2023/01/24 11:51:33;;;;;;;0.10;0.10;;;;;;;14.76;64.96;103152.06;7257389;19;2004146;-59
2023/01/24 11:54:14;;;;;;;0.10;0.10;;;;;;;14.71;65.72;103153.81;7356179;19;20014;-59
2023/01/24 11:56:58;;;;;;;0.00;0.00;;;;;;;14.75;66.30;103150.31;7358911;19;20461;-60
2023/01/24 11:59:29;;;;;;;0.10;0.10;;;;;;;14.84;65.65;103148.53;7358906;19;21729;-59
2023/01/24 12:02:45;;;;;;;0.00;0.00;;;;;;;14.97;66.83;103140.63;7365921;19;20102;-59
2023/01/24 12:05:39;;;;;;;0.10;0.10;;;;;;;15.07;65.95;103136.22;7260625;19;2004488;-59
2023/01/24 12:08:17;;;;;;;0.10;0.10;;;;;;;15.13;65.26;103135.34;7258203;19;2004263;-59
2023/01/24 12:10:42;;;;;;;;;;;;;;;15.23;66.72;103132.66;7365682;19;20451;-59
2023/01/24 12:13:57;;;;;;;0.10;0.10;;;;;;;15.40;65.99;103129.09;7366880;19;19949;-58
2023/01/24 12:16:25;;;;;;;0.10;0.10;;;;;;;15.57;64.58;103133.41;7159064;19;2004323;-59
2023/01/24 12:19:26;;;;;;;0.10;0.10;;;;;;;15.88;66.88;103127.16;7363692;19;20022;-60